Terminal Aerodrome Forecast
Issued by NWS

Home | Current Version | Previous Version | Text Only | Print | Product List | Glossary Off
Versions: 1 2 3 4 5 6 7 8 9 10 11 12 13 14 15 16 17

000
FTUS43 KGRB 251610 AAC
TAFATW
TAF AMD
KATW 251610Z 2516/2612 35007KT P6SM BKN022
      TEMPO 2516/2518 SCT022
     FM251800 34007KT P6SM SCT030
     FM252100 04006KT P6SM SKC
     FM260300 VRB03KT P6SM SKC=

USA.gov is the U.S. government's official web portal to all federal, state and local government web resources and services.